Time;durP1;ratioP1;P1;durP2;ratioP2;P2;SDS_P1;SDS_P2;PMS_P1;PMS_P2;Temp;Humidity;BMP_temperature;BMP_pressure;BME280_temperature;BME280_humidity;BME280_pressure;Samples;Min_cycle;Max_cycle;Signal;HPM_P1;HPM_P2
2021/07/22 00:01:03;;;;;;;9.07;7.77;;;;;;;19.19;68.92;101458.78;5043183;28;20209;-77
2021/07/22 00:03:30;;;;;;;9.70;8.20;;;;;;;19.16;68.97;101463.63;5046145;28;20238;-77
2021/07/22 00:05:56;;;;;;;8.70;7.17;;;;;;;19.11;68.88;101461.31;5050192;28;20233;-77
2021/07/22 00:08:24;;;;;;;9.03;8.00;;;;;;;19.07;69.22;101463.41;5039451;28;20214;-77
2021/07/22 00:10:51;;;;;;;9.27;7.43;;;;;;;19.05;69.35;101456.44;5038379;28;20222;-78
2021/07/22 00:13:17;;;;;;;10.87;8.20;;;;;;;19.05;69.45;101451.03;5054236;28;20209;-77
2021/07/22 00:15:43;;;;;;;9.73;7.97;;;;;;;19.02;69.39;101451.28;5043971;28;20241;-78
2021/07/22 00:18:10;;;;;;;10.30;8.23;;;;;;;18.97;69.33;101454.41;5048373;28;20205;-78
2021/07/22 00:20:36;;;;;;;11.10;8.73;;;;;;;18.92;69.48;101447.69;5042292;28;20219;-77
2021/07/22 00:23:03;;;;;;;11.00;9.00;;;;;;;18.86;69.55;101446.34;5048842;28;20231;-78
2021/07/22 00:25:31;;;;;;;9.97;8.30;;;;;;;18.81;69.54;101450.47;5043937;28;20217;-79
2021/07/22 00:27:57;;;;;;;9.80;8.47;;;;;;;18.77;69.71;101449.84;5052802;28;20216;-79
2021/07/22 00:30:24;;;;;;;12.67;8.93;;;;;;;18.73;69.93;101446.56;5047087;28;20214;-78
2021/07/22 00:32:50;;;;;;;11.63;8.13;;;;;;;18.72;70.05;101450.22;5054682;28;20302;-78
2021/07/22 00:35:17;;;;;;;11.13;8.13;;;;;;;18.69;69.85;101445.09;5052844;28;20610;-77
2021/07/22 00:37:43;;;;;;;10.67;8.17;;;;;;;18.68;70.01;101437.97;5038974;28;20226;-77
2021/07/22 00:40:11;;;;;;;10.70;8.33;;;;;;;18.67;70.12;101438.97;5050223;28;20269;-77
2021/07/22 00:42:58;;;;;;;8.90;7.90;;;;;;;18.66;70.05;101445.34;5056324;28;20202;-78
2021/07/22 00:45:25;;;;;;;11.77;8.17;;;;;;;18.64;70.39;101446.47;5041572;28;20215;-77
2021/07/22 00:47:51;;;;;;;9.70;8.20;;;;;;;18.62;70.53;101443.06;5054104;28;20213;-78
2021/07/22 00:50:18;;;;;;;10.33;7.80;;;;;;;18.61;70.60;101442.22;5044079;28;20582;-78
2021/07/22 00:52:44;;;;;;;15.93;8.10;;;;;;;18.61;70.66;101439.50;5047322;28;20213;-78
2021/07/22 00:55:13;;;;;;;9.90;8.03;;;;;;;18.60;70.73;101443.19;5046568;28;20642;-78
2021/07/22 00:57:40;;;;;;;11.20;8.63;;;;;;;18.59;70.67;101441.47;5042805;28;20231;-77
2021/07/22 01:00:10;;;;;;;8.13;7.27;;;;;;;18.57;70.74;101438.00;5051024;28;20203;-78
2021/07/22 01:02:36;;;;;;;9.60;7.80;;;;;;;18.56;70.81;101436.31;5043767;28;20206;-78
2021/07/22 01:05:03;;;;;;;9.53;8.20;;;;;;;18.57;70.96;101432.63;5045082;28;20240;-78
2021/07/22 01:07:29;;;;;;;10.83;7.97;;;;;;;18.59;70.97;101437.91;5038194;28;20240;-78
2021/07/22 01:09:56;;;;;;;10.67;8.23;;;;;;;18.60;71.12;101435.09;5050803;28;20214;-78
2021/07/22 01:12:22;;;;;;;8.90;7.70;;;;;;;18.59;71.04;101438.78;5051999;28;20199;-78
2021/07/22 01:14:49;;;;;;;9.70;8.47;;;;;;;18.56;70.91;101425.50;5045040;28;20205;-78
2021/07/22 01:17:26;;;;;;;8.17;7.37;;;;;;;18.52;70.81;101429.44;5036812;28;20239;-78
2021/07/22 01:19:53;;;;;;;8.37;7.47;;;;;;;18.46;71.25;101432.66;5042830;28;20204;-78
2021/07/22 01:22:20;;;;;;;11.33;8.27;;;;;;;18.44;71.24;101433.78;5040368;28;20207;-78
2021/07/22 01:24:47;;;;;;;9.27;7.33;;;;;;;18.42;71.37;101431.22;5038941;28;20232;-78
2021/07/22 01:27:13;;;;;;;10.37;7.83;;;;;;;18.42;71.76;101431.22;5043828;28;20241;-76
2021/07/22 01:29:40;;;;;;;10.77;8.50;;;;;;;18.42;71.66;101431.22;5037952;28;20210;-78
2021/07/22 01:32:07;;;;;;;12.87;9.10;;;;;;;18.42;71.89;101433.91;5052819;28;20216;-77
2021/07/22 01:34:34;;;;;;;11.07;8.57;;;;;;;18.41;71.72;101434.91;5038352;28;20212;-78
2021/07/22 01:37:00;;;;;;;9.80;8.80;;;;;;;18.41;71.86;101429.50;5036811;28;20235;-77
2021/07/22 01:39:30;;;;;;;9.83;8.83;;;;;;;18.40;71.60;101430.50;5039328;28;20214;-78
2021/07/22 01:41:56;;;;;;;9.83;7.73;;;;;;;18.38;71.80;101432.44;5056875;28;20220;-76
2021/07/22 01:44:23;;;;;;;8.80;7.83;;;;;;;18.36;71.84;101427.19;5055589;28;20234;-77
2021/07/22 01:46:49;;;;;;;12.17;9.40;;;;;;;18.35;72.09;101430.00;5054748;28;20242;-78
2021/07/22 01:49:16;;;;;;;10.77;9.03;;;;;;;18.35;72.12;101419.22;5055187;28;20777;-78
2021/07/22 01:51:42;;;;;;;11.07;8.93;;;;;;;18.34;72.19;101414.81;5049562;28;20202;-77
2021/07/22 01:54:09;;;;;;;11.57;9.40;;;;;;;18.34;72.05;101423.75;5048418;28;20216;-77
2021/07/22 01:56:37;;;;;;;17.70;8.93;;;;;;;18.36;71.83;101423.63;5048581;28;20229;-77
2021/07/22 01:59:03;;;;;;;10.17;8.67;;;;;;;18.36;71.91;101426.31;5039022;28;20309;-77
2021/07/22 02:01:30;;;;;;;11.90;8.50;;;;;;;18.35;71.87;101421.91;5049520;28;20202;-78
2021/07/22 02:03:56;;;;;;;12.60;8.60;;;;;;;18.34;71.84;101418.34;5052883;28;20231;-76
2021/07/22 02:06:23;;;;;;;11.87;8.77;;;;;;;18.32;71.95;101423.03;5053305;28;20244;-77
2021/07/22 02:08:49;;;;;;;9.93;8.40;;;;;;;18.31;72.11;101417.75;5055008;28;20214;-79
2021/07/22 02:11:16;;;;;;;10.53;8.33;;;;;;;18.29;72.17;101420.56;5056020;28;20570;-78
2021/07/22 02:13:44;;;;;;;11.20;8.80;;;;;;;18.28;72.10;101418.88;5047192;28;20211;-77
2021/07/22 02:16:10;;;;;;;11.40;9.00;;;;;;;18.27;72.14;101422.53;5050887;28;20729;-77
2021/07/22 02:18:37;;;;;;;11.07;8.63;;;;;;;18.27;72.38;101419.03;5053234;28;20207;-77
2021/07/22 02:21:05;;;;;;;11.87;9.17;;;;;;;18.25;72.18;101426.38;5052897;28;20216;-77
2021/07/22 02:23:32;;;;;;;13.13;9.17;;;;;;;18.24;72.17;101421.97;5048888;28;20273;-78
2021/07/22 02:25:58;;;;;;;13.07;8.67;;;;;;;18.22;72.17;101426.63;5049613;28;20231;-77
2021/07/22 02:28:25;;;;;;;10.80;8.30;;;;;;;18.21;72.16;101423.06;5055618;28;20209;-77
2021/07/22 02:30:52;;;;;;;10.67;8.63;;;;;;;18.23;72.24;101426.50;5048030;28;20192;-77
2021/07/22 02:33:19;;;;;;;10.53;8.50;;;;;;;18.24;72.26;101421.97;5041313;28;20213;-77
2021/07/22 02:35:45;;;;;;;10.87;8.83;;;;;;;18.23;72.32;101421.09;5041799;28;20598;-78
2021/07/22 02:38:12;;;;;;;13.70;9.13;;;;;;;18.26;72.20;101425.41;5043265;28;20208;-77
2021/07/22 02:40:40;;;;;;;11.40;9.30;;;;;;;18.28;72.33;101420.69;5052420;28;20209;-76
2021/07/22 02:43:06;;;;;;;10.27;8.83;;;;;;;18.28;72.38;101421.56;5045783;28;20651;-77
2021/07/22 02:45:33;;;;;;;10.80;8.70;;;;;;;18.30;72.39;101425.00;5038375;28;20224;-78
2021/07/22 02:48:01;;;;;;;10.70;9.23;;;;;;;18.32;72.31;101422.16;5050390;28;20207;-78
2021/07/22 02:50:27;;;;;;;9.27;8.23;;;;;;;18.33;72.41;101424.75;5048066;28;20229;-78
2021/07/22 02:52:54;;;;;;;13.00;8.83;;;;;;;18.33;72.33;101426.56;5042264;28;20207;-78
2021/07/22 02:55:20;;;;;;;11.17;8.83;;;;;;;18.34;72.29;101422.91;5047198;28;20205;-78
2021/07/22 02:57:47;;;;;;;10.23;8.53;;;;;;;18.35;72.35;101427.31;5046584;28;20241;-78
2021/07/22 03:00:15;;;;;;;10.70;8.53;;;;;;;18.34;72.31;101423.75;5048945;28;20210;-78
2021/07/22 03:02:41;;;;;;;13.27;9.17;;;;;;;18.34;72.29;101433.69;5054958;28;20583;-77
2021/07/22 03:05:10;;;;;;;11.27;8.60;;;;;;;18.30;72.23;101437.63;5053970;28;20317;-77
2021/07/22 03:07:36;;;;;;;9.20;8.10;;;;;;;18.25;72.62;101432.63;5055559;28;20607;-78
2021/07/22 03:10:03;;;;;;;11.83;8.30;;;;;;;18.20;72.73;101432.16;5045620;28;20649;-77
2021/07/22 03:12:30;;;;;;;8.73;7.80;;;;;;;18.17;73.22;101436.94;5038469;28;20203;-78
2021/07/22 03:14:56;;;;;;;9.77;7.87;;;;;;;18.13;73.34;101433.63;5044519;28;20205;-78
2021/07/22 03:17:23;;;;;;;9.73;7.63;;;;;;;18.08;73.59;101432.31;5047735;28;20599;-79
2021/07/22 03:19:50;;;;;;;9.10;8.10;;;;;;;18.02;73.98;101434.53;5049420;28;20205;-79
2021/07/22 03:22:17;;;;;;;9.63;8.13;;;;;;;17.98;74.23;101438.44;5047611;28;20202;-78
2021/07/22 03:24:44;;;;;;;9.47;8.17;;;;;;;17.95;74.30;101438.69;5048286;28;20315;-76
2021/07/22 03:27:10;;;;;;;9.63;8.07;;;;;;;17.94;74.59;101436.13;5041335;28;20226;-79
2021/07/22 03:29:37;;;;;;;9.87;7.90;;;;;;;17.93;74.60;101431.69;5052484;28;20209;-77
2021/07/22 03:32:04;;;;;;;10.57;8.10;;;;;;;17.94;74.79;101430.72;5049538;28;20583;-78
2021/07/22 03:34:31;;;;;;;10.57;8.50;;;;;;;17.95;74.87;101427.91;5041804;28;20199;-76
2021/07/22 03:36:57;;;;;;;10.10;8.50;;;;;;;17.98;74.82;101426.81;5054631;28;20874;-76
2021/07/22 03:39:25;;;;;;;10.53;9.27;;;;;;;17.97;74.84;101430.47;5042276;28;20207;-77
2021/07/22 03:41:51;;;;;;;12.43;9.47;;;;;;;17.96;74.72;101429.63;5038282;28;20663;-76
2021/07/22 03:44:18;;;;;;;10.80;8.47;;;;;;;17.96;74.85;101429.63;5040079;28;20247;-77
2021/07/22 03:46:44;;;;;;;11.37;9.87;;;;;;;17.95;75.18;101427.91;5050820;28;20231;-78
2021/07/22 03:49:11;;;;;;;10.80;9.17;;;;;;;17.98;74.89;101434.88;5038512;28;20675;-79
2021/07/22 03:51:37;;;;;;;13.10;9.97;;;;;;;17.98;75.06;101429.50;5045074;28;20213;-78
2021/07/22 03:54:05;;;;;;;12.47;9.07;;;;;;;17.97;74.91;101430.47;5045862;28;20209;-77
2021/07/22 03:56:33;;;;;;;13.93;9.97;;;;;;;17.96;75.18;101429.63;5047327;28;20226;-78
2021/07/22 03:58:59;;;;;;;10.53;9.30;;;;;;;17.96;74.98;101434.16;5044703;28;20206;-78
2021/07/22 04:01:26;;;;;;;13.70;10.37;;;;;;;17.97;75.05;101430.47;5043222;28;20671;-78
2021/07/22 04:03:53;;;;;;;12.50;9.63;;;;;;;17.96;75.09;101435.00;5051973;28;20661;-77
2021/07/22 04:06:20;;;;;;;15.13;11.33;;;;;;;17.96;75.07;101440.41;5043223;28;20217;-78
2021/07/22 04:08:46;;;;;;;12.70;10.47;;;;;;;17.98;75.25;101432.19;5052072;28;20205;-78
2021/07/22 04:11:13;;;;;;;14.03;11.50;;;;;;;18.00;75.18;101438.31;5047619;28;20233;-79
2021/07/22 04:13:41;;;;;;;14.20;10.27;;;;;;;18.02;75.11;101433.66;5048257;28;20207;-79
2021/07/22 04:16:07;;;;;;;12.07;10.40;;;;;;;18.03;75.10;101443.47;5051346;28;20216;-78
2021/07/22 04:18:34;;;;;;;12.97;9.57;;;;;;;18.04;74.91;101432.56;5042613;28;20230;-77
2021/07/22 04:21:01;;;;;;;13.93;10.27;;;;;;;18.07;74.93;101442.25;5046885;28;20216;-77
2021/07/22 04:23:27;;;;;;;14.47;9.80;;;;;;;18.07;75.00;101431.44;5047336;28;20201;-78
2021/07/22 04:25:54;;;;;;;13.40;10.67;;;;;;;18.10;75.00;101435.72;5047761;28;20229;-78
2021/07/22 04:28:20;;;;;;;11.90;9.40;;;;;;;18.10;74.82;101439.25;5045865;28;20210;-77
2021/07/22 04:30:48;;;;;;;12.87;9.90;;;;;;;18.11;74.93;101429.34;5046945;28;20276;-78
2021/07/22 04:33:15;;;;;;;13.97;10.60;;;;;;;18.10;74.63;101425.78;5048085;28;20212;-78
2021/07/22 04:35:41;;;;;;;12.43;10.37;;;;;;;18.12;74.57;101431.06;5047306;28;20208;-79
2021/07/22 04:38:08;;;;;;;14.30;10.37;;;;;;;18.12;74.67;101431.91;5046802;28;20568;-79
2021/07/22 04:40:34;;;;;;;12.13;9.77;;;;;;;18.13;74.78;101430.06;5042671;28;20208;-78
2021/07/22 04:43:01;;;;;;;12.50;10.20;;;;;;;18.11;74.70;101427.50;5037763;28;20218;-78
2021/07/22 04:45:28;;;;;;;13.20;10.33;;;;;;;18.09;75.09;101426.78;5041680;28;20339;-79
2021/07/22 04:47:56;;;;;;;12.07;9.63;;;;;;;18.10;75.31;101427.63;5042404;28;20204;-79
2021/07/22 04:50:22;;;;;;;17.73;10.77;;;;;;;18.10;75.31;101430.31;5043141;28;20219;-79
2021/07/22 04:52:49;;;;;;;11.47;9.67;;;;;;;18.09;75.34;101434.03;5052095;28;20205;-79
2021/07/22 04:55:16;;;;;;;15.80;11.03;;;;;;;18.08;75.14;101430.47;5049143;28;20205;-79
2021/07/22 04:57:42;;;;;;;12.90;10.37;;;;;;;18.09;75.17;101428.63;5049738;28;20222;-78
2021/07/22 05:00:10;;;;;;;14.53;10.47;;;;;;;18.09;74.94;101428.63;5045567;28;20417;-79
2021/07/22 05:02:36;;;;;;;13.50;11.07;;;;;;;18.10;75.14;101433.00;5044747;28;20209;-78
2021/07/22 05:05:05;;;;;;;11.30;10.07;;;;;;;18.11;75.05;101432.03;5047178;28;20587;-79
2021/07/22 05:07:31;;;;;;;12.50;9.63;;;;;;;18.11;75.03;101423.94;5051129;28;20229;-77
2021/07/22 05:09:58;;;;;;;15.30;11.33;;;;;;;18.11;74.76;101426.63;5043132;28;20228;-77
2021/07/22 05:12:24;;;;;;;14.00;10.43;;;;;;;18.10;74.83;101423.09;5040519;28;20213;-78
2021/07/22 05:14:51;;;;;;;16.17;10.87;;;;;;;18.10;74.72;101425.78;5044451;28;20224;-78
2021/07/22 05:17:17;;;;;;;13.57;10.67;;;;;;;18.12;74.77;101417.56;5044842;28;20225;-76
2021/07/22 05:19:44;;;;;;;14.70;11.70;;;;;;;18.12;74.74;101421.13;5044778;28;20204;-78
2021/07/22 05:22:11;;;;;;;13.13;11.47;;;;;;;18.15;74.65;101422.72;5051461;28;20205;-78
2021/07/22 05:24:38;;;;;;;15.53;10.70;;;;;;;18.15;74.67;101425.41;5047820;28;20221;-77
2021/07/22 05:27:05;;;;;;;12.73;10.20;;;;;;;18.17;74.65;101426.16;5041642;28;20575;-78
2021/07/22 05:29:31;;;;;;;14.17;11.03;;;;;;;18.18;74.57;101428.72;5054570;28;20209;-77
2021/07/22 05:31:58;;;;;;;15.23;10.97;;;;;;;18.19;74.57;101425.03;5048263;28;20216;-77
2021/07/22 05:34:24;;;;;;;11.13;10.00;;;;;;;18.22;74.36;101426.63;5052652;28;20207;-78
2021/07/22 05:36:51;;;;;;;15.27;11.07;;;;;;;18.22;74.48;101427.47;5049290;28;20245;-78
2021/07/22 05:39:19;;;;;;;15.23;11.40;;;;;;;18.23;74.47;101426.50;5049518;28;20207;-78
2021/07/22 05:41:46;;;;;;;13.73;10.20;;;;;;;18.25;74.42;101434.47;5047030;28;20232;-77
2021/07/22 05:44:12;;;;;;;16.00;11.47;;;;;;;18.24;74.48;101435.44;5055948;28;20296;-78
2021/07/22 05:46:39;;;;;;;15.93;11.60;;;;;;;18.25;74.42;101437.16;5043747;28;20720;-77
2021/07/22 05:49:06;;;;;;;14.27;12.07;;;;;;;18.26;74.44;101428.09;5047856;28;20209;-78
2021/07/22 05:51:33;;;;;;;14.87;11.30;;;;;;;18.26;75.03;101433.50;5037962;28;20243;-77
2021/07/22 05:54:00;;;;;;;14.57;11.37;;;;;;;18.27;74.77;101429.81;5044747;28;20202;-76
2021/07/22 05:56:28;;;;;;;14.23;12.27;;;;;;;18.31;74.91;101436.63;5038533;28;20232;-77
2021/07/22 05:58:55;;;;;;;17.13;12.63;;;;;;;18.34;74.93;101439.94;5047185;28;20641;-77
2021/07/22 06:01:21;;;;;;;16.00;12.07;;;;;;;18.36;75.00;101437.13;5045049;28;20200;-77
2021/07/22 06:03:48;;;;;;;17.43;12.03;;;;;;;18.39;75.12;101436.88;5045131;28;20227;-78
2021/07/22 06:06:17;;;;;;;18.10;12.07;;;;;;;18.44;75.18;101447.28;5051553;28;20228;-78
2021/07/22 06:08:45;;;;;;;15.07;12.43;;;;;;;18.47;75.09;101442.44;5051595;28;20310;-78
2021/07/22 06:11:13;;;;;;;17.80;12.90;;;;;;;18.49;75.22;101445.03;5049911;28;20291;-77
2021/07/22 06:13:41;;;;;;;15.63;12.77;;;;;;;18.52;75.43;101442.06;5047012;28;20216;-77
2021/07/22 06:16:12;;;;;;;16.50;12.63;;;;;;;18.54;75.44;101451.75;5046606;28;20224;-78
2021/07/22 06:18:39;;;;;;;18.90;13.97;;;;;;;18.58;75.43;101445.13;5048255;28;20215;-78
2021/07/22 06:21:06;;;;;;;17.03;13.50;;;;;;;18.63;75.52;101448.28;5049869;28;20295;-77
2021/07/22 06:23:32;;;;;;;21.40;13.27;;;;;;;18.68;75.31;101450.63;5043213;28;20204;-77
2021/07/22 06:26:00;;;;;;;15.83;12.70;;;;;;;18.69;75.20;101445.09;5037440;28;20601;-77
2021/07/22 06:28:27;;;;;;;16.60;12.73;;;;;;;18.70;74.93;101441.41;5043417;28;20206;-77
2021/07/22 06:30:55;;;;;;;14.67;13.00;;;;;;;18.75;74.94;101450.97;5037115;28;20241;-78
2021/07/22 06:33:23;;;;;;;18.67;13.77;;;;;;;18.78;74.90;101448.88;5046717;28;20206;-77
2021/07/22 06:35:50;;;;;;;16.63;13.47;;;;;;;18.83;74.53;101454.69;5044382;28;20243;-77
2021/07/22 06:38:16;;;;;;;14.97;12.87;;;;;;;18.89;74.46;101450.63;5043015;28;20308;-77
2021/07/22 06:40:43;;;;;;;17.83;13.57;;;;;;;18.94;74.14;101449.25;5043516;28;20208;-78
2021/07/22 06:43:10;;;;;;;19.00;13.93;;;;;;;19.02;73.94;101448.59;5047971;28;20218;-78
2021/07/22 06:45:37;;;;;;;17.10;13.50;;;;;;;19.08;73.72;101456.16;5041090;28;20243;-77
2021/07/22 06:48:07;;;;;;;16.57;13.57;;;;;;;19.13;73.46;101442.28;5046060;28;20217;-77
2021/07/22 06:50:37;;;;;;;17.87;13.30;;;;;;;19.17;73.50;101449.97;5043969;28;20224;-77
2021/07/22 06:53:04;;;;;;;18.07;13.30;;;;;;;19.21;73.31;101446.00;5045859;28;20212;-78
2021/07/22 06:55:30;;;;;;;15.83;12.57;;;;;;;19.25;73.07;101446.59;5044085;28;20213;-75
2021/07/22 06:57:57;;;;;;;18.10;14.30;;;;;;;19.30;73.13;101441.66;5041562;28;20222;-77
2021/07/22 07:00:24;;;;;;;17.37;13.50;;;;;;;19.36;73.18;101443.81;5042438;28;20571;-77
2021/07/22 07:02:50;;;;;;;16.80;12.87;;;;;;;19.40;72.71;101446.13;5041356;28;20668;-77
2021/07/22 07:05:18;;;;;;;18.00;13.17;;;;;;;19.49;72.83;101438.19;5045133;28;20259;-78
2021/07/22 07:07:45;;;;;;;18.80;14.00;;;;;;;19.58;72.79;101448.22;5045463;28;20226;-77
2021/07/22 07:10:12;;;;;;;19.60;13.87;;;;;;;19.63;72.22;101443.25;5044515;28;20208;-77
2021/07/22 07:12:38;;;;;;;17.17;13.00;;;;;;;19.67;72.02;101437.47;5045669;28;20222;-76
2021/07/22 07:15:07;;;;;;;17.07;14.10;;;;;;;19.75;71.75;101442.16;5042778;28;20206;-78
2021/07/22 07:17:34;;;;;;;18.67;12.77;;;;;;;19.83;71.41;101441.50;5043393;28;20260;-78
2021/07/22 07:20:01;;;;;;;18.63;13.67;;;;;;;19.89;71.02;101444.47;5048086;28;20205;-78
2021/07/22 07:22:28;;;;;;;17.80;13.63;;;;;;;19.95;70.41;101443.94;5043639;28;20581;-76
2021/07/22 07:24:55;;;;;;;17.67;13.27;;;;;;;20.01;70.29;101445.25;5040629;28;20209;-78
2021/07/22 07:27:21;;;;;;;16.70;13.50;;;;;;;20.08;70.24;101449.94;5040098;28;20240;-78
2021/07/22 07:29:48;;;;;;;16.07;13.13;;;;;;;20.13;69.94;101454.94;5038623;28;20585;-77
2021/07/22 07:32:16;;;;;;;18.77;14.27;;;;;;;20.17;69.62;101439.28;5043859;28;20209;-77
2021/07/22 07:34:43;;;;;;;17.77;13.53;;;;;;;20.19;69.20;101446.28;5042745;28;20208;-76
2021/07/22 07:37:09;;;;;;;19.97;14.00;;;;;;;20.22;69.25;101440.59;5046534;28;20227;-77
2021/07/22 07:39:37;;;;;;;16.93;12.90;;;;;;;20.28;69.10;101448.13;5040705;28;20217;-78
2021/07/22 07:42:04;;;;;;;16.30;12.57;;;;;;;20.37;68.97;101450.03;5044870;28;20291;-78
2021/07/22 07:44:30;;;;;;;15.07;12.60;;;;;;;20.47;68.53;101455.44;5038480;28;20492;-78
2021/07/22 07:46:57;;;;;;;18.37;12.57;;;;;;;20.57;68.25;101445.50;5043317;28;20240;-77
2021/07/22 07:49:23;;;;;;;15.77;13.07;;;;;;;20.71;67.86;101442.34;5038811;28;20545;-77
2021/07/22 07:51:50;;;;;;;18.57;12.97;;;;;;;20.82;67.13;101456.72;5041508;28;20209;-77
2021/07/22 07:54:21;;;;;;;16.43;12.87;;;;;;;20.92;66.42;101457.56;5046604;28;20203;-78
2021/07/22 07:56:49;;;;;;;16.87;13.37;;;;;;;21.02;66.26;101450.28;5038206;28;20244;-77
2021/07/22 07:59:16;;;;;;;21.47;13.40;;;;;;;21.11;66.25;101447.56;5039464;28;20209;-77
2021/07/22 08:01:43;;;;;;;16.93;13.50;;;;;;;21.22;65.83;101451.97;5035880;28;20221;-79
2021/07/22 08:04:09;;;;;;;16.47;13.37;;;;;;;21.30;65.46;101453.97;5044713;28;20211;-78
2021/07/22 08:06:36;;;;;;;21.23;13.73;;;;;;;21.36;65.02;101443.38;5041200;28;20231;-78
2021/07/22 08:09:02;;;;;;;19.13;14.50;;;;;;;21.40;64.62;101447.50;5046315;28;20657;-77
2021/07/22 08:11:29;;;;;;;19.17;13.80;;;;;;;21.44;64.54;101448.94;5040705;28;20197;-78
2021/07/22 08:13:57;;;;;;;18.08;14.45;;;;;;;21.47;63.98;101450.50;5043415;28;20291;-77
2021/07/22 08:16:23;;;;;;;18.40;14.50;;;;;;;21.45;63.68;101450.63;5048246;28;20693;-78
2021/07/22 08:18:50;;;;;;;18.97;15.07;;;;;;;21.45;63.62;101453.34;5040681;28;20203;-76
2021/07/22 08:21:18;;;;;;;18.63;15.13;;;;;;;21.47;63.59;101445.06;5037913;28;20213;-79
2021/07/22 08:23:45;;;;;;;17.10;14.47;;;;;;;21.48;63.56;101450.34;5037601;28;20209;-77
2021/07/22 08:26:11;;;;;;;18.07;14.50;;;;;;;21.54;63.85;101448.88;5040091;28;21488;-78
2021/07/22 08:28:38;;;;;;;16.57;14.70;;;;;;;21.60;63.60;101451.00;5044341;28;20214;-78
2021/07/22 08:31:06;;;;;;;18.30;14.55;;;;;;;21.63;63.27;101448.00;5052860;28;20196;-78
2021/07/22 08:33:33;;;;;;;18.73;14.90;;;;;;;21.70;63.25;101448.22;5051111;28;20216;-79
2021/07/22 08:35:59;;;;;;;17.05;14.63;;;;;;;21.75;63.06;101446.78;5049938;28;20236;-79
2021/07/22 08:38:26;;;;;;;20.03;14.60;;;;;;;21.83;62.70;101446.06;5054601;28;20629;-79
2021/07/22 08:40:53;;;;;;;22.53;16.33;;;;;;;21.89;62.25;101441.84;5046370;28;20205;-79
2021/07/22 08:43:22;;;;;;;20.67;14.95;;;;;;;21.94;61.91;101445.84;5046504;28;20217;-78
2021/07/22 08:45:49;;;;;;;16.57;14.80;;;;;;;21.99;61.40;101437.25;5053751;28;20240;-79
2021/07/22 08:48:17;;;;;;;18.23;14.88;;;;;;;22.03;61.29;101436.84;5054533;28;20952;-78
2021/07/22 08:50:45;;;;;;;22.30;15.82;;;;;;;22.09;60.67;101436.19;5049804;28;20201;-78
2021/07/22 08:53:14;;;;;;;17.38;14.20;;;;;;;22.17;60.69;101435.44;5053306;28;20201;-79
2021/07/22 08:55:44;;;;;;;20.85;14.68;;;;;;;22.27;60.58;101440.78;5052353;28;20674;-79
2021/07/22 08:58:11;;;;;;;19.63;15.00;;;;;;;22.39;60.58;101426.84;5053715;28;20219;-78
2021/07/22 09:00:38;;;;;;;17.15;13.85;;;;;;;22.51;59.99;101428.34;5057462;28;20220;-78
2021/07/22 09:03:11;;;;;;;21.17;14.43;;;;;;;22.58;59.23;101428.53;5048881;28;20688;-78
2021/07/22 09:05:39;;;;;;;16.92;14.48;;;;;;;22.63;58.50;101425.38;5057773;28;20752;-77
2021/07/22 09:08:06;;;;;;;15.77;13.27;;;;;;;22.63;58.04;101426.22;5059955;28;20277;-77
2021/07/22 09:10:32;;;;;;;17.17;14.93;;;;;;;22.67;57.92;101435.75;5039606;28;20205;-76
2021/07/22 09:12:59;;;;;;;17.92;13.93;;;;;;;22.74;58.16;101431.44;5039767;28;20202;-76
2021/07/22 09:15:27;;;;;;;16.67;13.77;;;;;;;22.83;57.95;101429.66;5044182;28;20648;-76
2021/07/22 09:17:53;;;;;;;16.85;13.63;;;;;;;22.92;57.52;101436.00;5043518;28;20201;-76
2021/07/22 09:20:29;;;;;;;17.23;13.52;;;;;;;22.98;57.54;101436.22;5040193;28;20215;-77
2021/07/22 09:22:58;;;;;;;17.25;13.85;;;;;;;23.02;56.65;101437.59;5044868;28;20293;-76
2021/07/22 09:25:38;;;;;;;16.95;13.32;;;;;;;23.05;56.60;101431.00;5040407;28;20210;-79
2021/07/22 09:28:06;;;;;;;14.73;12.35;;;;;;;23.06;56.47;101438.16;5051827;28;20216;-76
2021/07/22 09:30:32;;;;;;;19.35;12.73;;;;;;;23.08;56.25;101434.25;5042762;28;20580;-78
2021/07/22 09:32:59;;;;;;;15.60;12.35;;;;;;;23.09;55.99;101435.13;5052557;28;20266;-78
2021/07/22 09:35:26;;;;;;;18.13;12.75;;;;;;;23.10;56.14;101439.53;5045715;28;20652;-78
2021/07/22 09:37:54;;;;;;;18.63;13.38;;;;;;;23.15;55.99;101439.91;5039355;28;20198;-78
2021/07/22 09:40:35;;;;;;;16.65;13.77;;;;;;;23.16;55.47;101434.31;5043842;28;20208;-78
2021/07/22 09:43:01;;;;;;;17.33;12.82;;;;;;;23.14;55.44;101443.63;5045253;28;20667;-77
2021/07/22 09:45:31;;;;;;;14.82;12.82;;;;;;;23.14;55.37;101432.75;5053776;28;20601;-76
2021/07/22 09:48:08;;;;;;;17.40;13.07;;;;;;;23.13;55.57;101440.06;5038245;28;20936;-77
2021/07/22 09:50:42;;;;;;;13.50;11.40;;;;;;;23.12;55.54;101435.63;5039774;28;20215;-76
2021/07/22 09:53:10;;;;;;;15.43;12.40;;;;;;;23.06;55.32;101446.28;5048334;28;20215;-75
2021/07/22 09:55:40;;;;;;;13.80;12.07;;;;;;;23.03;55.63;101450.19;5057505;28;20861;-79
2021/07/22 09:58:09;;;;;;;14.50;11.82;;;;;;;23.05;55.67;101444.59;5057272;28;20831;-77
2021/07/22 10:00:40;;;;;;;16.42;11.65;;;;;;;23.01;55.39;101437.75;5053850;28;20202;-77
2021/07/22 10:03:09;;;;;;;15.60;11.32;;;;;;;22.98;55.53;101446.22;5042396;28;20612;-78
2021/07/22 10:05:40;;;;;;;15.23;12.05;;;;;;;22.96;55.62;101448.25;5040323;28;20644;-77
2021/07/22 10:08:08;;;;;;;18.52;12.70;;;;;;;22.91;55.16;101447.88;5038179;28;20292;-79
2021/07/22 10:10:37;;;;;;;14.05;12.05;;;;;;;22.81;55.13;101443.38;5037310;28;20199;-77
2021/07/22 10:13:06;;;;;;;16.83;13.05;;;;;;;22.75;55.34;101441.25;5038400;28;20220;-76
2021/07/22 10:15:36;;;;;;;17.13;12.13;;;;;;;22.73;55.58;101440.59;5042515;28;20647;-76
2021/07/22 10:18:05;;;;;;;17.58;12.98;;;;;;;22.70;55.68;101434.59;5048138;28;20259;-77
2021/07/22 10:20:33;;;;;;;14.05;11.50;;;;;;;22.73;56.07;101437.00;5052126;28;20202;-77
2021/07/22 10:23:01;;;;;;;15.05;12.77;;;;;;;22.74;55.98;101436.84;5046363;28;20206;-77
2021/07/22 10:25:28;;;;;;;14.70;12.02;;;;;;;22.76;55.68;101431.25;5038119;28;21128;-77
2021/07/22 10:27:58;;;;;;;14.85;12.55;;;;;;;22.79;55.78;101428.25;5036056;28;20226;-76
2021/07/22 10:30:25;;;;;;;15.07;12.43;;;;;;;22.80;55.61;101430.81;5043781;28;20203;-76
2021/07/22 10:32:55;;;;;;;14.20;12.20;;;;;;;22.81;55.56;101420.81;5036976;28;20225;-76
2021/07/22 10:35:22;;;;;;;14.60;12.00;;;;;;;22.80;55.48;101428.09;5049512;28;20664;-77
2021/07/22 10:38:06;;;;;;;17.70;12.73;;;;;;;22.80;55.74;101428.09;5050488;28;20228;-77
2021/07/22 10:40:58;;;;;;;14.02;12.45;;;;;;;22.79;55.73;101418.25;5052208;28;20550;-76
2021/07/22 10:43:42;;;;;;;14.52;12.18;;;;;;;22.82;55.66;101414.34;5029320;28;20260;-76
2021/07/22 10:46:11;;;;;;;14.52;12.43;;;;;;;22.88;55.72;101418.31;5040861;28;20731;-76
2021/07/22 10:48:38;;;;;;;15.73;11.48;;;;;;;22.92;55.68;101414.28;5045639;28;20239;-77
2021/07/22 10:51:10;;;;;;;14.38;11.80;;;;;;;22.95;55.79;101414.78;5052799;28;20205;-75
2021/07/22 10:53:53;;;;;;;14.75;11.35;;;;;;;22.97;55.83;101417.34;5048662;28;20198;-78
2021/07/22 10:56:55;;;;;;;15.02;11.25;;;;;;;22.97;55.54;101409.19;5044149;28;20283;-78
2021/07/22 10:59:56;;;;;;;14.00;12.07;;;;;;;22.96;55.28;101411.06;5037156;28;20212;-75
2021/07/22 11:02:44;;;;;;;13.05;11.65;;;;;;;22.98;55.31;101405.47;5033929;28;20217;-78
2021/07/22 11:05:13;;;;;;;13.15;11.73;;;;;;;23.01;55.32;101399.72;5038738;28;20214;-77
2021/07/22 11:07:39;;;;;;;13.63;11.35;;;;;;;23.04;55.42;101400.25;5037813;28;20226;-76
2021/07/22 11:10:07;;;;;;;15.48;12.10;;;;;;;23.07;55.23;101396.38;5044479;28;20227;-77
2021/07/22 11:12:55;;;;;;;14.15;11.30;;;;;;;23.14;55.57;101405.56;5056120;28;20201;-76
2021/07/22 11:16:01;;;;;;;13.82;11.98;;;;;;;23.22;55.54;101392.06;5052684;28;20209;-77
2021/07/22 11:18:54;;;;;;;13.05;11.07;;;;;;;23.33;55.19;101394.47;5036673;28;20284;-76